Time;durP1;ratioP1;P1;durP2;ratioP2;P2;SDS_P1;SDS_P2;PMS_P1;PMS_P2;Temp;Humidity;BMP_temperature;BMP_pressure;BME280_temperature;BME280_humidity;BME280_pressure;Samples;Min_cycle;Max_cycle;Signal;HPM_P1;HPM_P2
2022/07/07 00:04:10;;;;;;;9.27;6.35;;;;;;;20.26;89.01;94738.81;4971781;28;20213;-74
2022/07/07 00:07:04;;;;;;;;;;;;;;;;;;;;;
2022/07/07 00:10:04;;;;;;;7.10;6.43;;;;;;;20.28;89.26;94736.72;4969585;28;20229;-74
2022/07/07 00:12:57;;;;;;;7.55;6.00;;;;;;;20.28;88.91;94742.00;4972110;28;20275;-74
2022/07/07 00:15:34;;;;;;;7.97;6.03;;;;;;;20.25;89.22;94742.53;4972354;28;20628;-74
2022/07/07 00:18:21;;;;;;;7.53;6.38;;;;;;;20.23;89.38;94740.13;4969534;28;20208;-74
2022/07/07 00:21:10;;;;;;;9.40;6.30;;;;;;;20.20;89.50;94753.13;4971314;28;20204;-74
2022/07/07 00:24:09;;;;;;;7.72;6.93;;;;;;;20.19;89.82;94741.78;4971309;28;20276;-73
2022/07/07 00:26:56;;;;;;;6.43;5.82;;;;;;;20.21;89.45;94749.41;4971989;28;20263;-74
2022/07/07 00:29:43;;;;;;;6.70;6.10;;;;;;;20.21;89.25;94749.41;4971449;28;20204;-73
2022/07/07 00:32:40;;;;;;;7.20;5.93;;;;;;;20.24;88.95;94746.22;4972046;28;20243;-72
2022/07/07 00:35:29;;;;;;;6.75;6.05;;;;;;;20.18;88.99;94742.81;4975874;28;20240;-73
2022/07/07 00:38:25;;;;;;;6.95;5.70;;;;;;;20.12;89.07;94745.75;4975889;28;20678;-73
2022/07/07 00:41:17;;;;;;;7.57;5.68;;;;;;;20.05;89.06;94740.81;4975245;28;20240;-73
2022/07/07 00:44:01;;;;;;;8.35;6.15;;;;;;;19.98;89.29;94742.16;4975086;28;20675;-73
2022/07/07 00:50:06;;;;;;;6.38;5.35;;;;;;;19.79;90.76;94742.81;4975082;28;20287;-74
2022/07/07 00:52:53;;;;;;;7.03;6.43;;;;;;;19.78;90.36;94743.88;4975508;28;20318;-73
2022/07/07 00:55:51;;;;;;;7.13;6.43;;;;;;;19.81;89.82;94732.00;4975828;28;20212;-74
2022/07/07 00:58:45;;;;;;;9.35;6.22;;;;;;;19.78;89.89;94730.69;4975481;28;20271;-73
2022/07/07 01:01:42;;;;;;;7.82;5.80;;;;;;;19.80;89.50;94738.31;4974909;28;20208;-73
2022/07/07 01:04:35;;;;;;;6.28;5.40;;;;;;;19.78;88.73;94735.97;4974765;28;20213;-74
2022/07/07 01:07:31;;;;;;;6.13;5.15;;;;;;;19.74;88.76;94740.19;4975502;28;20201;-74
2022/07/07 01:10:32;;;;;;;6.68;5.20;;;;;;;19.72;88.53;94736.25;4975542;28;20201;-74
2022/07/07 01:16:06;;;;;;;5.35;4.85;;;;;;;19.68;88.47;94740.50;4974989;28;20207;-74
2022/07/07 01:18:53;;;;;;;7.90;5.32;;;;;;;19.68;88.14;94738.66;4975190;28;20663;-74
2022/07/07 01:21:37;;;;;;;6.65;5.68;;;;;;;19.63;88.73;94741.31;4974553;28;20208;-74
2022/07/07 01:24:43;;;;;;;5.15;4.70;;;;;;;19.57;88.63;94742.41;4936819;29;20208;-72
2022/07/07 01:27:34;;;;;;;7.22;5.13;;;;;;;19.65;88.15;94746.34;4936552;29;20316;-73
2022/07/07 01:30:21;;;;;;;8.18;5.03;;;;;;;19.62;88.49;94744.22;4936657;29;20213;-74
2022/07/07 01:33:06;;;;;;;5.28;4.78;;;;;;;19.63;88.24;94746.59;4936926;29;20233;-73
2022/07/07 01:35:57;;;;;;;5.95;4.68;;;;;;;19.65;87.90;94743.69;4936412;29;20305;-73
2022/07/07 01:38:45;;;;;;;5.30;4.80;;;;;;;19.61;87.88;94745.28;4936552;29;20202;-73
2022/07/07 01:41:44;;;;;;;8.05;5.22;;;;;;;19.61;88.32;94743.44;4935904;29;20198;-73
2022/07/07 01:44:38;;;;;;;5.13;4.65;;;;;;;19.60;88.20;94741.06;4934730;29;20662;-73
2022/07/07 01:47:33;;;;;;;8.40;5.13;;;;;;;19.62;87.87;94745.03;4936144;29;20206;-73
2022/07/07 01:50:21;;;;;;;5.45;4.38;;;;;;;19.61;87.25;94740.00;4936062;29;20214;-73
2022/07/07 01:53:14;;;;;;;5.97;4.30;;;;;;;19.56;87.11;94745.31;4936349;29;20261;-72
2022/07/07 01:56:11;;;;;;;11.02;5.03;;;;;;;19.54;87.23;94736.88;4936307;29;20210;-72
2022/07/07 02:02:05;;;;;;;5.82;4.53;;;;;;;19.56;85.95;94732.13;4935554;29;20289;-74
2022/07/07 02:04:57;;;;;;;6.22;4.85;;;;;;;19.40;86.73;94735.88;4935786;29;20285;-73
2022/07/07 02:07:53;;;;;;;11.35;5.43;;;;;;;19.34;86.81;94735.09;4935744;29;20241;-73
2022/07/07 02:16:57;;;;;;;5.72;4.13;;;;;;;19.24;86.43;94733.31;4935384;29;20214;-73
2022/07/07 02:19:53;;;;;;;5.18;4.68;;;;;;;19.24;86.04;94729.88;4929354;29;20202;-74
2022/07/07 02:22:47;;;;;;;9.45;4.30;;;;;;;19.22;86.00;94731.97;4943591;28;20243;-73
2022/07/07 02:25:27;;;;;;;4.57;4.18;;;;;;;19.16;85.82;94736.47;4973601;28;20219;-73
2022/07/07 02:28:22;;;;;;;6.07;4.30;;;;;;;19.17;85.88;94729.34;4973660;28;20330;-73
2022/07/07 02:31:14;;;;;;;6.78;4.05;;;;;;;19.17;85.77;94726.72;4973518;28;20248;-73
2022/07/07 02:34:18;;;;;;;6.18;4.20;;;;;;;19.16;85.39;94733.84;4973569;28;20275;-73
2022/07/07 02:37:07;;;;;;;8.82;3.90;;;;;;;19.11;85.31;94731.22;4973959;28;20212;-73
2022/07/07 02:40:00;;;;;;;6.40;3.78;;;;;;;19.01;85.42;94728.63;4973977;28;20220;-73
2022/07/07 02:42:55;;;;;;;4.22;3.83;;;;;;;19.07;85.24;94730.19;4973666;28;20626;-74
2022/07/07 02:45:47;;;;;;;7.20;4.38;;;;;;;19.02;85.71;94722.28;4973431;28;20196;-74
2022/07/07 02:48:42;;;;;;;7.15;4.60;;;;;;;18.96;85.72;94733.91;4973760;28;20207;-74
2022/07/07 02:54:25;;;;;;;5.22;3.90;;;;;;;18.94;85.51;94724.69;4973146;28;20239;-74
2022/07/07 02:57:13;;;;;;;4.95;3.83;;;;;;;18.93;85.74;94731.03;4972744;28;20586;-73
2022/07/07 03:00:00;;;;;;;4.90;3.83;;;;;;;18.83;86.28;94738.94;4973173;28;20204;-73
2022/07/07 03:02:55;;;;;;;3.95;3.60;;;;;;;18.84;86.17;94730.78;4973630;28;20207;-74
2022/07/07 03:05:44;;;;;;;5.03;3.55;;;;;;;18.86;85.66;94739.19;4973187;28;20292;-73
2022/07/07 03:08:45;;;;;;;5.30;3.73;;;;;;;18.86;85.63;94738.41;4973106;28;20296;-74
2022/07/07 03:11:27;;;;;;;3.70;3.40;;;;;;;18.88;85.28;94739.72;4973228;28;20204;-74
2022/07/07 03:14:17;;;;;;;4.90;3.35;;;;;;;18.81;85.76;94741.06;4972505;28;20229;-75
2022/07/07 03:17:03;;;;;;;4.80;3.33;;;;;;;18.82;85.48;94747.88;4972828;28;20591;-74
2022/07/07 03:19:59;;;;;;;4.75;3.30;;;;;;;18.89;85.11;94749.22;4972845;28;20215;-74
2022/07/07 03:22:53;;;;;;;5.57;3.65;;;;;;;18.89;84.85;94751.03;4972598;28;20327;-73
2022/07/07 03:25:47;;;;;;;4.65;3.30;;;;;;;18.96;84.04;94747.06;4972754;28;20204;-74
2022/07/07 03:28:43;;;;;;;3.70;3.40;;;;;;;18.94;84.04;94746.56;4972650;28;20240;-74
2022/07/07 03:31:32;;;;;;;3.93;3.60;;;;;;;18.90;83.90;94731.56;4972502;28;20205;-73
2022/07/07 03:34:19;;;;;;;6.43;3.75;;;;;;;19.04;83.42;94746.53;4972477;28;20308;-74
2022/07/07 03:37:09;;;;;;;4.70;3.20;;;;;;;19.06;83.32;94747.06;4972407;28;20340;-74
2022/07/07 03:40:01;;;;;;;4.07;3.30;;;;;;;19.06;82.68;94741.00;4972358;28;20763;-74
2022/07/07 03:42:50;;;;;;;4.13;3.20;;;;;;;19.10;83.03;94747.31;4972424;28;20288;-74
2022/07/07 03:45:40;;;;;;;9.75;3.30;;;;;;;19.13;82.82;94747.53;4972213;28;20208;-73
2022/07/07 03:48:27;;;;;;;3.83;3.10;;;;;;;19.14;82.87;94746.50;4972230;28;20644;-73
2022/07/07 03:54:15;;;;;;;3.63;3.22;;;;;;;19.19;82.11;94748.34;4968835;28;20224;-72
2022/07/07 03:57:09;;;;;;;5.18;3.22;;;;;;;19.12;82.58;94737.28;4972281;28;20196;-73
2022/07/07 04:00:06;;;;;;;6.05;3.33;;;;;;;19.22;82.32;94748.56;4972226;28;20212;-73
2022/07/07 04:02:59;;;;;;;5.22;3.97;;;;;;;19.21;82.66;94748.84;4971920;28;20716;-73
2022/07/07 04:05:59;;;;;;;6.55;3.20;;;;;;;19.26;83.08;94752.25;4972160;28;20208;-73
2022/07/07 04:08:49;;;;;;;6.70;3.63;;;;;;;19.23;82.69;94750.16;4977008;28;20205;-74
2022/07/07 04:11:49;;;;;;;5.88;3.53;;;;;;;19.25;83.53;94748.03;4978260;28;20683;-75
2022/07/07 04:14:38;;;;;;;7.35;3.50;;;;;;;19.29;83.17;94753.56;4978583;28;20232;-75
2022/07/07 04:17:19;;;;;;;3.88;3.35;;;;;;;19.30;82.64;94754.34;4978394;28;20200;-73
2022/07/07 04:20:01;;;;;;;3.83;3.42;;;;;;;19.31;82.58;94751.44;4978391;28;20204;-74
2022/07/07 04:22:48;;;;;;;4.75;3.58;;;;;;;19.35;82.67;94757.75;4978014;28;20695;-74
2022/07/07 04:25:32;;;;;;;8.82;3.80;;;;;;;19.43;81.82;94756.44;4978559;28;20196;-73
2022/07/07 04:28:18;;;;;;;5.30;3.10;;;;;;;19.41;82.37;94756.72;4978510;28;20219;-73
2022/07/07 04:31:03;;;;;;;7.07;3.20;;;;;;;19.36;82.84;94756.72;4978147;28;20204;-72
2022/07/07 04:33:57;;;;;;;3.70;3.25;;;;;;;19.41;82.64;94758.56;4978263;28;20616;-72
2022/07/07 04:36:44;;;;;;;3.67;3.28;;;;;;;19.46;82.29;94761.97;4978427;28;20287;-72
2022/07/07 04:39:29;;;;;;;6.95;3.08;;;;;;;19.52;82.51;94765.38;4978034;28;20205;-72
2022/07/07 04:42:20;;;;;;;7.30;3.35;;;;;;;19.47;82.48;94758.28;4977774;28;20271;-72
2022/07/07 04:45:14;;;;;;;3.30;3.00;;;;;;;19.46;82.13;94767.22;4977953;28;20216;-73
2022/07/07 04:48:04;;;;;;;4.25;3.28;;;;;;;19.52;81.82;94763.53;4978481;28;20204;-73
2022/07/07 04:51:06;;;;;;;4.55;3.85;;;;;;;19.55;82.04;94770.09;4978004;28;20251;-72
2022/07/07 04:53:54;;;;;;;5.85;3.70;;;;;;;19.53;82.48;94764.31;4978217;28;20230;-73
2022/07/07 04:56:47;;;;;;;5.45;3.25;;;;;;;19.67;81.29;94773.22;4978146;28;20200;-74
2022/07/07 04:59:41;;;;;;;6.70;3.50;;;;;;;19.66;82.02;94769.00;4976970;28;20205;-74
2022/07/07 05:02:24;;;;;;;4.45;3.67;;;;;;;19.73;81.67;94772.94;4977936;28;20676;-74
2022/07/07 05:05:10;;;;;;;4.00;3.30;;;;;;;19.80;80.23;94765.47;4977828;28;20656;-74
2022/07/07 05:08:05;;;;;;;4.68;3.78;;;;;;;19.82;79.66;94775.78;4977745;28;20675;-73
2022/07/07 05:10:52;;;;;;;10.65;7.15;;;;;;;19.81;79.66;94764.44;4977774;28;20201;-74
2022/07/07 05:13:43;;;;;;;12.48;6.35;;;;;;;19.71;81.25;94769.75;4974753;28;20224;-75
2022/07/07 05:16:28;;;;;;;7.28;3.88;;;;;;;19.76;81.58;94764.47;4977987;28;20268;-73
2022/07/07 05:19:14;;;;;;;9.30;3.97;;;;;;;19.77;81.10;94758.13;4975985;28;20215;-73
2022/07/07 05:22:03;;;;;;;3.70;3.40;;;;;;;19.91;79.84;94768.09;4975048;28;20201;-73
2022/07/07 05:24:55;;;;;;;5.13;3.28;;;;;;;20.00;80.58;94761.94;4974984;28;20205;-73
2022/07/07 05:27:51;;;;;;;5.70;3.50;;;;;;;20.08;80.84;94766.66;4974929;28;20212;-73
2022/07/07 05:30:34;;;;;;;5.53;3.45;;;;;;;20.03;81.68;94764.03;4974862;28;20579;-72
2022/07/07 05:33:18;;;;;;;4.88;3.40;;;;;;;20.05;81.40;94767.19;4974424;28;20272;-73
2022/07/07 05:36:13;;;;;;;6.97;3.83;;;;;;;20.23;81.40;94771.06;4974694;28;20216;-72
2022/07/07 05:39:06;;;;;;;4.03;3.58;;;;;;;20.57;78.93;94777.16;4974321;28;20260;-72
2022/07/07 05:41:53;;;;;;;5.95;3.50;;;;;;;20.80;78.94;94775.63;4974341;28;20228;-73
2022/07/07 05:47:35;;;;;;;4.82;4.10;;;;;;;20.56;80.35;94772.94;4973530;28;20231;-73
2022/07/07 05:50:30;;;;;;;10.73;6.65;;;;;;;20.43;81.30;94781.50;4974232;28;20207;-72
2022/07/07 05:53:21;;;;;;;4.85;4.18;;;;;;;20.33;81.34;94779.72;4974045;28;20312;-73
2022/07/07 05:56:11;;;;;;;6.10;4.03;;;;;;;20.27;81.47;94775.53;4974385;28;20663;-72
2022/07/07 05:59:05;;;;;;;4.30;3.85;;;;;;;20.34;80.93;94775.22;4974180;28;20267;-73
2022/07/07 06:01:47;;;;;;;6.43;3.90;;;;;;;20.23;80.64;94773.69;4973595;28;20288;-72
2022/07/07 06:04:31;;;;;;;4.50;3.58;;;;;;;20.26;79.21;94773.13;4972660;28;20284;-73
2022/07/07 06:07:22;;;;;;;5.90;3.42;;;;;;;20.30;79.41;94771.53;4974377;28;20236;-73
2022/07/07 06:10:10;;;;;;;3.80;3.50;;;;;;;20.42;78.11;94781.75;4974087;28;20216;-72
2022/07/07 06:15:43;;;;;;;5.78;3.67;;;;;;;20.32;78.39;94787.88;4971356;28;20220;-73
2022/07/07 06:18:39;;;;;;;5.05;3.67;;;;;;;20.26;78.76;94784.50;4973891;28;20208;-73
2022/07/07 06:21:37;;;;;;;7.65;3.42;;;;;;;20.27;79.53;94791.34;4969036;28;20288;-73
2022/07/07 06:24:35;;;;;;;5.28;4.15;;;;;;;20.35;79.05;94797.91;4973305;28;20240;-73
2022/07/07 06:33:18;;;;;;;6.93;3.63;;;;;;;20.54;78.24;94784.84;4971937;28;20227;-72
2022/07/07 06:39:02;;;;;;;7.60;3.80;;;;;;;21.02;75.99;94785.72;4973072;28;20263;-73
2022/07/07 06:41:51;;;;;;;4.65;4.00;;;;;;;21.39;73.37;94783.25;4973274;28;20623;-72
2022/07/07 06:44:46;;;;;;;5.70;3.35;;;;;;;21.47;73.48;94780.00;4973406;28;20643;-72
2022/07/07 06:47:33;;;;;;;7.88;3.67;;;;;;;21.34;73.94;94755.00;4973254;28;20208;-73
2022/07/07 06:50:26;;;;;;;7.68;4.00;;;;;;;21.43;73.44;94785.06;4973351;28;20737;-73
2022/07/07 06:53:20;;;;;;;8.68;4.15;;;;;;;21.37;74.64;94782.75;4973469;28;20269;-73
2022/07/07 06:56:17;;;;;;;5.95;3.88;;;;;;;21.29;75.08;94778.06;4972943;28;20232;-73
2022/07/07 06:59:15;;;;;;;11.20;3.78;;;;;;;21.32;74.89;94778.31;4972968;28;20287;-73
2022/07/07 07:02:15;;;;;;;5.25;3.60;;;;;;;21.37;73.79;94780.09;4968939;28;20204;-73
2022/07/07 07:05:08;;;;;;;7.13;3.90;;;;;;;21.35;73.38;94777.75;4972971;28;20205;-73
2022/07/07 07:08:12;;;;;;;5.28;3.25;;;;;;;21.27;74.31;94780.97;4972707;28;20248;-73
2022/07/07 07:10:53;;;;;;;5.07;3.30;;;;;;;21.35;72.40;94775.09;4972787;28;20208;-73
2022/07/07 07:13:47;;;;;;;6.32;3.22;;;;;;;21.22;73.77;94774.97;4972952;28;20228;-73
2022/07/07 07:16:36;;;;;;;5.82;3.30;;;;;;;21.29;73.91;94772.78;4972507;28;20668;-73
2022/07/07 07:19:19;;;;;;;3.90;3.58;;;;;;;21.36;74.78;94770.56;4972551;28;20281;-73
2022/07/07 07:22:09;;;;;;;3.88;3.50;;;;;;;21.43;73.80;94773.69;4973073;28;20248;-74
2022/07/07 07:25:19;;;;;;;;;;;;;;;;;;;;;
2022/07/07 07:28:07;;;;;;;4.78;3.60;;;;;;;21.59;73.09;94769.00;4933993;29;20212;-74
2022/07/07 07:30:56;;;;;;;3.13;2.83;;;;;;;21.57;72.03;94768.47;4934080;29;20288;-72
2022/07/07 07:33:47;;;;;;;4.43;3.10;;;;;;;21.56;69.15;94775.63;4934524;29;20304;-75
2022/07/07 07:36:49;;;;;;;7.40;3.35;;;;;;;21.65;67.83;94767.84;4934111;29;20217;-72
2022/07/07 07:42:38;;;;;;;3.92;3.05;;;;;;;22.38;64.37;94776.94;4935584;29;20612;-73
2022/07/07 07:45:31;;;;;;;5.07;3.25;;;;;;;22.61;64.69;94778.69;4934082;29;20608;-72
2022/07/07 07:48:20;;;;;;;5.88;3.10;;;;;;;22.65;64.40;94784.22;4927486;29;20293;-72
2022/07/07 07:51:23;;;;;;;4.20;3.10;;;;;;;22.60;63.40;94774.44;4933646;29;20212;-73
2022/07/07 07:57:20;;;;;;;3.58;3.10;;;;;;;22.58;65.13;94773.16;4931596;28;20210;-73
2022/07/07 08:00:23;;;;;;;7.00;3.35;;;;;;;22.74;64.77;94781.69;4934210;29;20635;-72
2022/07/07 08:03:11;;;;;;;6.43;3.50;;;;;;;22.82;64.35;94776.53;4933827;29;20209;-72
2022/07/07 08:05:56;;;;;;;6.53;3.10;;;;;;;22.87;63.69;94786.25;4933929;29;20202;-72
2022/07/07 08:08:41;;;;;;;3.85;2.90;;;;;;;22.95;63.92;94774.97;4933772;29;20258;-73
2022/07/07 08:14:25;;;;;;;4.97;2.90;;;;;;;23.14;60.46;94789.72;4933514;29;20229;-74
2022/07/07 08:17:09;;;;;;;3.58;3.15;;;;;;;22.81;62.41;94784.75;4934103;29;20567;-72
2022/07/07 08:22:51;;;;;;;6.78;2.70;;;;;;;22.79;63.24;94784.25;4940290;28;20241;-72
2022/07/07 08:25:39;;;;;;;3.10;2.80;;;;;;;22.93;63.25;94785.88;4971042;28;20291;-72
2022/07/07 08:31:13;;;;;;;4.95;3.38;;;;;;;23.68;61.27;94786.34;4970614;28;20607;-73
2022/07/07 08:34:05;;;;;;;5.68;2.80;;;;;;;23.63;60.44;94781.16;4971864;28;20235;-74
2022/07/07 08:36:52;;;;;;;3.47;3.08;;;;;;;23.59;61.43;94777.50;4972130;28;20232;-72
2022/07/07 08:39:44;;;;;;;4.15;2.72;;;;;;;23.51;62.35;94786.16;4971942;28;20227;-72
2022/07/07 08:42:44;;;;;;;3.97;3.00;;;;;;;23.52;63.32;94793.03;4972026;28;20201;-72
2022/07/07 08:45:31;;;;;;;4.78;3.45;;;;;;;23.58;62.84;94778.56;4971209;28;20228;-73
2022/07/07 08:48:24;;;;;;;4.93;3.13;;;;;;;23.80;60.93;94788.50;4972287;28;20208;-72
2022/07/07 08:51:30;;;;;;;5.50;3.00;;;;;;;23.84;60.92;94783.38;4971680;28;20208;-72
2022/07/07 08:57:14;;;;;;;5.05;2.78;;;;;;;23.93;61.41;94782.38;4975636;28;20590;-73
2022/07/07 09:02:49;;;;;;;7.35;3.50;;;;;;;24.06;60.52;94784.22;4975271;28;20212;-73
2022/07/07 09:05:47;;;;;;;5.72;2.92;;;;;;;23.97;61.82;94786.00;4974640;28;20200;-72
2022/07/07 09:08:48;;;;;;;3.40;2.90;;;;;;;24.37;61.01;94776.38;4975314;28;20698;-73
2022/07/07 09:11:40;;;;;;;4.80;3.33;;;;;;;24.52;60.21;94778.69;4974926;28;20211;-73
2022/07/07 09:14:30;;;;;;;3.15;2.85;;;;;;;24.63;59.89;94769.38;4975313;28;20312;-72
2022/07/07 09:17:24;;;;;;;3.42;3.13;;;;;;;24.74;60.73;94777.88;4975241;28;20296;-73
2022/07/07 09:20:27;;;;;;;3.30;2.85;;;;;;;24.79;60.62;94781.22;4975175;28;20267;-73
2022/07/07 09:23:19;;;;;;;3.38;3.08;;;;;;;24.80;60.34;94785.47;4974942;28;20814;-74
2022/07/07 09:26:15;;;;;;;4.55;3.40;;;;;;;24.78;59.12;94790.28;4975274;28;20204;-73
2022/07/07 09:29:11;;;;;;;4.00;2.78;;;;;;;24.75;59.36;94787.44;4974795;28;20209;-73
2022/07/07 09:32:10;;;;;;;5.20;3.95;;;;;;;24.75;58.59;94785.56;4974588;28;20203;-74
2022/07/07 09:38:13;;;;;;;6.15;3.45;;;;;;;24.68;59.11;94777.22;4974533;28;20228;-73
2022/07/07 09:41:29;;;;;;;5.93;2.95;;;;;;;24.85;59.89;94767.84;4966791;28;20212;-73
2022/07/07 09:44:19;;;;;;;3.78;3.00;;;;;;;25.07;58.71;94781.09;4974555;28;20201;-73
2022/07/07 09:47:28;;;;;;;3.78;2.90;;;;;;;25.22;57.64;94778.03;4972108;28;20297;-73
2022/07/07 09:50:24;;;;;;;3.15;2.70;;;;;;;25.15;57.67;94775.03;4974550;28;20208;-73
2022/07/07 09:53:22;;;;;;;3.15;2.63;;;;;;;25.09;57.74;94766.41;4974664;28;20209;-73
2022/07/07 09:56:33;;;;;;;3.80;2.97;;;;;;;25.19;57.66;94770.69;4974505;28;20221;-74
2022/07/07 09:59:28;;;;;;;3.40;3.00;;;;;;;25.27;58.80;94767.25;4974133;28;20295;-73
2022/07/07 10:02:24;;;;;;;3.17;2.88;;;;;;;25.62;58.68;94773.53;4974229;28;20211;-72
2022/07/07 10:08:14;;;;;;;3.53;2.65;;;;;;;25.65;56.09;94760.38;4975923;28;20288;-73
2022/07/07 10:11:06;;;;;;;3.10;2.80;;;;;;;25.51;57.01;94766.91;4974115;28;20223;-74
2022/07/07 10:14:11;;;;;;;3.55;2.80;;;;;;;25.64;57.40;94774.78;4974075;28;20303;-74
2022/07/07 10:16:58;;;;;;;3.15;2.85;;;;;;;26.08;56.78;94760.47;4974017;28;20291;-73
2022/07/07 10:19:49;;;;;;;3.78;2.72;;;;;;;26.36;55.73;94750.28;4973740;28;20263;-73
2022/07/07 10:22:40;;;;;;;5.75;3.30;;;;;;;26.54;55.25;94748.41;4973494;28;20212;-73
2022/07/07 10:25:31;;;;;;;6.20;2.80;;;;;;;26.37;53.51;94754.53;4974193;28;20205;-74
2022/07/07 10:28:19;;;;;;;6.28;2.70;;;;;;;26.18;54.99;94746.06;4973873;28;20240;-72
2022/07/07 10:31:35;;;;;;;3.90;2.70;;;;;;;26.11;56.30;94735.84;4973700;28;20586;-73
2022/07/07 10:34:24;;;;;;;3.13;2.83;;;;;;;26.29;55.82;94748.09;4968258;28;20200;-73
2022/07/07 10:37:13;;;;;;;3.95;2.75;;;;;;;26.66;55.56;94736.00;4973490;28;20200;-73
2022/07/07 10:40:12;;;;;;;4.28;2.80;;;;;;;26.91;53.48;94742.41;4973528;28;20196;-73
2022/07/07 10:46:24;;;;;;;4.47;2.60;;;;;;;27.15;52.87;94739.19;4974804;28;20212;-73
2022/07/07 10:49:21;;;;;;;3.42;2.80;;;;;;;27.38;52.90;94730.63;4973317;28;20259;-74
2022/07/07 10:52:25;;;;;;;4.47;2.63;;;;;;;27.30;53.03;94728.75;4973390;28;20627;-73
2022/07/07 10:55:16;;;;;;;3.75;2.55;;;;;;;27.11;53.91;94736.38;4973324;28;20315;-72
2022/07/07 10:58:07;;;;;;;3.85;3.08;;;;;;;27.05;53.30;94740.31;4972866;28;20243;-72
2022/07/07 11:01:09;;;;;;;3.92;2.70;;;;;;;27.34;53.33;94735.03;4973271;28;20204;-73
2022/07/07 11:07:15;;;;;;;4.55;2.83;;;;;;;28.01;50.37;94743.00;4972834;28;20272;-73
2022/07/07 11:10:10;;;;;;;3.58;2.78;;;;;;;27.97;50.54;94730.59;4973096;28;20204;-73
2022/07/07 11:13:04;;;;;;;5.55;2.40;;;;;;;27.96;50.61;94729.06;4970193;28;20700;-73
2022/07/07 11:16:00;;;;;;;6.22;2.70;;;;;;;28.04;50.75;94722.91;4973213;28;20228;-73
2022/07/07 11:21:54;;;;;;;2.70;2.50;;;;;;;27.62;51.74;94718.59;4969503;28;20272;-74
2022/07/07 11:24:47;;;;;;;4.50;2.47;;;;;;;27.65;51.89;94708.03;4972703;28;20231;-74
2022/07/07 11:27:44;;;;;;;5.18;2.80;;;;;;;28.20;51.55;94710.50;4972738;28;20207;-73
2022/07/07 11:30:40;;;;;;;2.53;2.28;;;;;;;28.72;48.32;94704.72;4972829;28;20207;-73
2022/07/07 11:33:32;;;;;;;4.63;2.50;;;;;;;28.90;48.85;94706.88;4966430;28;20200;-74
2022/07/07 11:39:49;;;;;;;3.60;2.60;;;;;;;28.48;49.63;94697.38;4962695;28;20213;-73
2022/07/07 11:42:44;;;;;;;3.58;2.65;;;;;;;28.90;50.26;94703.41;4972689;28;20197;-73
2022/07/07 11:45:43;;;;;;;3.72;2.67;;;;;;;29.48;48.13;94696.91;4972795;28;20577;-73
2022/07/07 11:48:44;;;;;;;5.40;3.22;;;;;;;29.81;47.03;94690.28;4971299;28;20205;-73
2022/07/07 11:51:41;;;;;;;5.53;2.40;;;;;;;30.23;46.28;94693.44;4972362;28;20211;-73
2022/07/07 11:54:37;;;;;;;2.95;2.47;;;;;;;30.10;44.08;94681.16;4972439;28;20200;-73
2022/07/07 11:57:10;;;;;;;2.72;2.50;;;;;;;30.25;45.35;94688.50;4972536;28;20291;-73
2022/07/07 12:03:00;;;;;;;4.50;2.03;;;;;;;30.93;43.67;94688.47;4972530;28;20259;-73
2022/07/07 12:05:53;;;;;;;3.25;2.42;;;;;;;30.90;43.43;94673.00;4972294;28;20598;-73
2022/07/07 12:08:54;;;;;;;5.45;2.60;;;;;;;31.02;44.13;94682.91;4972395;28;20232;-73
2022/07/07 12:11:51;;;;;;;5.20;2.47;;;;;;;31.21;43.27;94675.72;4972167;28;20196;-73
2022/07/07 12:14:46;;;;;;;2.45;2.22;;;;;;;31.41;42.55;94680.03;4972075;28;20200;-73
2022/07/07 12:17:50;;;;;;;2.60;2.30;;;;;;;31.53;42.26;94673.03;4972235;28;20590;-73
2022/07/07 12:20:46;;;;;;;4.35;2.30;;;;;;;31.83;41.55;94679.47;4972218;28;20234;-73
2022/07/07 12:26:26;;;;;;;2.63;2.38;;;;;;;31.38;41.48;94674.59;4971698;28;20208;-74
2022/07/07 12:29:28;;;;;;;2.33;2.20;;;;;;;30.89;42.77;94677.59;4974238;28;20209;-74
2022/07/07 12:32:19;;;;;;;5.57;2.38;;;;;;;31.32;43.13;94665.22;4974083;28;20651;-73
2022/07/07 12:35:13;;;;;;;3.50;2.22;;;;;;;31.75;41.99;94667.00;4975881;28;20224;-74
2022/07/07 12:38:02;;;;;;;2.30;2.10;;;;;;;32.24;40.96;94672.66;4975791;28;20657;-73
2022/07/07 12:40:49;;;;;;;3.25;2.30;;;;;;;32.64;39.92;94670.41;4975847;28;20254;-74
2022/07/07 12:43:42;;;;;;;2.53;2.30;;;;;;;32.90;38.58;94669.72;4972991;28;20621;-74
2022/07/07 12:46:46;;;;;;;3.05;1.95;;;;;;;32.17;38.18;94665.25;4975475;28;20200;-73
2022/07/07 12:49:38;;;;;;;2.88;2.08;;;;;;;31.51;40.43;94659.16;4975752;28;20212;-73
2022/07/07 12:52:31;;;;;;;3.55;2.13;;;;;;;31.22;42.11;94665.75;4973322;28;20528;-73
2022/07/07 12:55:27;;;;;;;3.17;2.10;;;;;;;30.95;42.05;94656.66;4975437;28;20264;-73
2022/07/07 12:58:31;;;;;;;4.70;2.30;;;;;;;30.60;42.75;94661.09;4975307;28;20216;-73
2022/07/07 13:01:27;;;;;;;2.88;2.25;;;;;;;30.52;43.33;94652.09;4975222;28;20735;-73
2022/07/07 13:04:25;;;;;;;4.07;2.30;;;;;;;30.47;43.95;94664.97;4975368;28;20205;-74
2022/07/07 13:07:10;;;;;;;3.95;2.47;;;;;;;30.33;43.37;94651.94;4975099;28;20197;-73
2022/07/07 13:13:00;;;;;;;7.70;2.60;;;;;;;29.65;45.86;94646.53;4974472;28;20286;-74
2022/07/07 13:15:54;;;;;;;3.13;2.70;;;;;;;29.54;46.11;94652.69;4974962;28;20733;-73
2022/07/07 13:18:48;;;;;;;7.07;2.30;;;;;;;29.74;44.37;94652.53;4975240;28;20211;-74
2022/07/07 13:21:51;;;;;;;2.40;2.20;;;;;;;29.77;42.81;94659.13;4974704;28;20831;-73
2022/07/07 13:24:49;;;;;;;6.13;2.35;;;;;;;29.41;42.30;94659.19;4974819;28;20295;-73
2022/07/07 13:30:33;;;;;;;9.75;3.17;;;;;;;28.73;45.99;94658.88;4974474;28;20224;-73
2022/07/07 13:33:23;;;;;;;4.90;2.67;;;;;;;28.42;46.25;94656.66;4973235;28;20211;-73
2022/07/07 13:39:09;;;;;;;7.93;2.60;;;;;;;29.02;45.82;94653.34;4974082;28;20216;-73
2022/07/07 13:44:47;;;;;;;3.28;2.60;;;;;;;29.03;46.49;94654.88;4974703;28;20208;-73
2022/07/07 13:47:40;;;;;;;4.63;2.88;;;;;;;28.86;46.76;94657.78;4974335;28;20263;-73
2022/07/07 13:50:26;;;;;;;3.15;2.60;;;;;;;28.58;46.70;94659.47;4974224;28;20205;-73
2022/07/07 13:53:11;;;;;;;6.18;2.88;;;;;;;28.55;47.26;94660.16;4974210;28;20646;-72
2022/07/07 13:56:09;;;;;;;3.40;2.70;;;;;;;28.50;47.51;94655.00;4974451;28;20703;-73
2022/07/07 13:59:05;;;;;;;3.65;2.70;;;;;;;28.28;46.95;94658.84;4974376;28;20203;-73
2022/07/07 14:02:04;;;;;;;4.70;2.30;;;;;;;27.85;47.50;94650.38;4974227;28;20240;-73
2022/07/07 14:07:48;;;;;;;5.53;2.60;;;;;;;27.18;49.39;94642.47;4974442;28;20287;-74
2022/07/07 14:10:34;;;;;;;3.17;2.85;;;;;;;27.11;49.72;94639.50;4974226;28;20687;-73
2022/07/07 14:13:27;;;;;;;7.07;2.72;;;;;;;27.09;49.28;94625.69;4974096;28;20251;-73
2022/07/07 14:16:09;;;;;;;3.65;2.85;;;;;;;26.93;49.93;94626.25;4974026;28;20243;-72
2022/07/07 14:19:00;;;;;;;3.08;2.50;;;;;;;26.76;50.79;94633.50;4973509;28;20204;-72
2022/07/07 14:22:07;;;;;;;8.43;2.78;;;;;;;26.86;50.61;94631.31;4973180;28;20267;-75
2022/07/07 14:25:05;;;;;;;3.33;2.67;;;;;;;27.09;50.43;94633.72;4974092;28;20232;-72
2022/07/07 14:27:56;;;;;;;3.20;2.60;;;;;;;27.69;49.94;94638.69;4974010;28;20224;-73
2022/07/07 14:30:52;;;;;;;2.72;2.47;;;;;;;27.72;48.04;94638.06;4973869;28;20660;-73
2022/07/07 14:33:35;;;;;;;4.43;2.47;;;;;;;27.58;48.21;94635.66;4973604;28;20207;-73
2022/07/07 14:36:28;;;;;;;2.90;2.58;;;;;;;27.43;49.99;94631.66;4973569;28;20287;-72
2022/07/07 14:39:22;;;;;;;2.95;2.65;;;;;;;27.38;50.55;94629.16;4973782;28;20654;-72
2022/07/07 14:42:07;;;;;;;3.05;2.58;;;;;;;27.37;50.65;94624.91;4973872;28;20302;-73
2022/07/07 14:44:55;;;;;;;5.07;2.75;;;;;;;27.37;50.08;94621.44;4970039;28;20213;-73
2022/07/07 14:50:37;;;;;;;6.40;2.80;;;;;;;27.31;49.56;94620.84;4972974;28;20216;-72
2022/07/07 14:53:19;;;;;;;7.38;2.47;;;;;;;27.29;50.07;94625.75;4972351;28;20279;-73
2022/07/07 14:56:11;;;;;;;3.55;2.70;;;;;;;27.30;49.68;94621.97;4973155;28;20583;-73
2022/07/07 14:58:57;;;;;;;8.13;2.50;;;;;;;27.33;50.22;94625.91;4973189;28;20208;-74
2022/07/07 15:04:50;;;;;;;2.85;2.55;;;;;;;27.37;49.77;94622.25;4972846;28;20212;-72
2022/07/07 15:07:42;;;;;;;2.90;2.60;;;;;;;27.40;50.17;94632.28;4973030;28;20220;-72
2022/07/07 15:10:15;;;;;;;2.83;2.63;;;;;;;27.55;49.60;94626.41;4972998;28;20295;-72
2022/07/07 15:13:12;;;;;;;2.75;2.47;;;;;;;27.86;48.15;94617.19;4973096;28;20243;-72
2022/07/07 15:16:08;;;;;;;4.00;2.53;;;;;;;28.40;48.93;94621.44;4973111;28;20221;-72
2022/07/07 15:18:48;;;;;;;2.97;2.72;;;;;;;28.87;47.12;94615.75;4971870;28;20211;-73